createdAt,value
2018-09-21T00:01:40.449Z,100224.17
2018-09-21T00:04:11.409Z,100218.59
2018-09-21T00:06:40.203Z,100220.67
2018-09-21T00:09:10.543Z,100214.24
2018-09-21T00:11:39.220Z,100229.02
2018-09-21T00:14:11.332Z,100239.83
2018-09-21T00:16:40.038Z,100255.73
2018-09-21T00:19:08.717Z,100259.06
2018-09-21T00:21:37.396Z,100257.99
2018-09-21T00:24:06.089Z,100260.23
2018-09-21T00:26:34.865Z,100263.93
2018-09-21T00:29:03.617Z,100256.75
2018-09-21T00:31:32.406Z,100254.77
2018-09-21T00:34:01.181Z,100267.47
2018-09-21T00:36:29.897Z,100260.28
2018-09-21T00:38:58.542Z,100270.16
2018-09-21T00:41:27.387Z,100266.53
2018-09-21T00:43:56.889Z,100270.98
2018-09-21T00:46:25.740Z,100288.83
2018-09-21T00:48:54.416Z,100290.02
2018-09-21T00:51:23.084Z,100283.10
2018-09-21T00:53:52.934Z,100314.14
2018-09-21T00:56:21.619Z,100288.77
2018-09-21T00:58:50.337Z,100312.96
2018-09-21T01:01:19.200Z,100313.69
2018-09-21T01:03:48.748Z,100338.20
2018-09-21T01:06:17.780Z,100343.35
2018-09-21T01:08:46.533Z,100368.30
2018-09-21T01:11:15.557Z,100370.45
2018-09-21T01:13:44.265Z,100387.37
2018-09-21T01:16:12.944Z,100378.88
2018-09-21T01:18:41.638Z,100382.41
2018-09-21T01:21:10.323Z,100393.63
2018-09-21T01:23:39.013Z,100407.63
2018-09-21T01:26:07.741Z,100412.42
2018-09-21T01:28:36.439Z,100423.70
2018-09-21T01:31:05.278Z,100426.43
2018-09-21T01:33:34.068Z,100444.71
2018-09-21T01:36:02.824Z,100433.89
2018-09-21T01:38:31.612Z,100448.16
2018-09-21T01:41:14.947Z,100470.02
2018-09-21T01:43:43.867Z,100464.33
2018-09-21T01:46:13.629Z,100483.53
2018-09-21T01:48:42.323Z,100503.67
2018-09-21T01:51:11.052Z,100501.20
2018-09-21T01:53:39.943Z,100494.03
2018-09-21T01:56:08.990Z,100510.70
2018-09-21T01:58:37.775Z,100503.97
2018-09-21T02:01:07.048Z,100523.98
2018-09-21T02:03:35.720Z,100525.91
2018-09-21T02:06:04.711Z,100528.45
2018-09-21T02:08:34.033Z,100534.63
2018-09-21T02:11:02.867Z,100527.47
2018-09-21T02:13:31.888Z,100548.40
2018-09-21T02:20:49.949Z,100530.06
2018-09-21T02:23:19.353Z,100564.12
2018-09-21T02:25:48.520Z,100567.67
2018-09-21T02:28:17.204Z,100565.23
2018-09-21T02:30:45.902Z,100567.09
2018-09-21T02:33:14.636Z,100570.31
2018-09-21T02:35:43.537Z,100590.72
2018-09-21T02:38:12.330Z,100577.52
2018-09-21T02:40:41.009Z,100612.17
2018-09-21T02:43:09.693Z,100618.78
2018-09-21T02:45:38.363Z,100602.00
2018-09-21T02:48:07.247Z,100615.81
2018-09-21T02:50:37.055Z,100626.78
2018-09-21T02:53:05.712Z,100630.55
2018-09-21T02:55:34.391Z,100642.35
2018-09-21T02:58:03.076Z,100635.83
2018-09-21T03:00:31.830Z,100637.63
2018-09-21T03:03:00.423Z,100644.95
2018-09-21T03:05:30.292Z,100649.71
2018-09-21T03:07:58.933Z,100644.80
2018-09-21T03:10:27.631Z,100654.52
2018-09-21T03:12:56.304Z,100661.58
2018-09-21T03:15:28.092Z,100663.17
2018-09-21T03:17:56.748Z,100666.38
2018-09-21T03:20:25.424Z,100680.01
2018-09-21T03:22:54.088Z,100675.03
2018-09-21T03:25:22.760Z,100673.47
2018-09-21T03:27:51.439Z,100668.55
2018-09-21T03:30:20.070Z,100673.70
2018-09-21T03:32:48.784Z,100682.83
2018-09-21T03:35:17.468Z,100678.46
2018-09-21T03:37:46.130Z,100686.19
2018-09-21T03:40:14.858Z,100687.03
2018-09-21T03:42:43.509Z,100687.79
2018-09-21T03:45:12.161Z,100686.33
2018-09-21T03:47:40.821Z,100698.36
2018-09-21T03:50:09.495Z,100692.07
2018-09-21T03:52:38.120Z,100702.70
2018-09-21T03:55:07.188Z,100709.98
2018-09-21T03:57:35.837Z,100721.81
2018-09-21T04:00:04.646Z,100730.52
2018-09-21T04:02:33.301Z,100729.09
2018-09-21T04:05:01.997Z,100731.80
2018-09-21T04:07:30.675Z,100732.72
2018-09-21T04:09:59.364Z,100739.49
2018-09-21T04:12:28.020Z,100745.25
2018-09-21T04:14:56.681Z,100737.80
2018-09-21T04:17:25.370Z,100744.00
2018-09-21T04:19:54.017Z,100756.34
2018-09-21T04:22:22.692Z,100753.97
2018-09-21T04:24:51.371Z,100762.95
2018-09-21T04:27:20.028Z,100756.27
2018-09-21T04:29:48.744Z,100768.61
2018-09-21T04:32:17.405Z,100772.17
2018-09-21T04:34:46.068Z,100784.55
2018-09-21T04:37:14.724Z,100781.55
2018-09-21T04:39:43.440Z,100792.89
2018-09-21T04:42:12.082Z,100802.52
2018-09-21T04:44:40.767Z,100807.23
2018-09-21T04:47:09.452Z,100793.73
2018-09-21T04:49:38.277Z,100814.85
2018-09-21T04:52:07.335Z,100805.23
2018-09-21T04:54:36.148Z,100822.98
2018-09-21T04:57:05.040Z,100824.19
2018-09-21T04:59:33.702Z,100825.89
2018-09-21T05:02:02.979Z,100821.52
2018-09-21T05:04:31.640Z,100827.49
2018-09-21T05:07:00.302Z,100834.38
2018-09-21T05:09:28.960Z,100835.69
2018-09-21T05:11:57.631Z,100844.75
2018-09-21T05:14:26.435Z,100842.45
2018-09-21T05:16:55.707Z,100848.42
2018-09-21T05:19:24.355Z,100854.24
2018-09-21T05:21:53.147Z,100848.11
2018-09-21T05:24:21.839Z,100864.16
2018-09-21T05:26:50.459Z,100862.86
2018-09-21T05:29:19.126Z,100864.01
2018-09-21T05:31:47.778Z,100863.22
2018-09-21T05:34:17.573Z,100865.83
2018-09-21T05:36:46.228Z,100870.30
2018-09-21T05:39:15.549Z,100871.45
2018-09-21T05:41:44.265Z,100861.77
2018-09-21T05:44:13.126Z,100859.00
2018-09-21T05:46:42.540Z,100884.55
2018-09-21T05:49:11.214Z,100870.92
2018-09-21T05:51:39.896Z,100885.58
2018-09-21T05:54:08.607Z,100886.63
2018-09-21T05:56:37.345Z,100906.91
2018-09-21T05:59:06.064Z,100904.67
2018-09-21T06:01:34.772Z,100911.38
2018-09-21T06:04:07.171Z,100904.84
2018-09-21T06:06:35.893Z,100907.10
2018-09-21T06:09:06.576Z,100906.86
2018-09-21T06:11:35.239Z,100907.85
2018-09-21T06:14:04.020Z,100916.44
2018-09-21T06:16:32.670Z,100914.14
2018-09-21T06:19:01.381Z,100912.16
2018-09-21T06:21:30.060Z,100913.71
2018-09-21T06:23:58.987Z,100911.33
2018-09-21T06:26:27.723Z,100921.72
2018-09-21T06:28:56.532Z,100925.48
2018-09-21T06:31:25.272Z,100928.31
2018-09-21T06:33:53.908Z,100944.12
2018-09-21T06:36:22.932Z,100960.08
2018-09-21T06:38:52.824Z,100947.87
2018-09-21T06:41:21.482Z,100967.58
2018-09-21T06:43:50.161Z,100963.49
2018-09-21T06:46:19.012Z,100956.66
2018-09-21T06:48:47.924Z,100968.80
2018-09-21T06:51:16.657Z,100960.83
2018-09-21T06:53:45.387Z,100966.58
2018-09-21T06:56:14.186Z,100967.84
2018-09-21T06:58:43.116Z,100971.38
2018-09-21T07:01:11.947Z,100974.00
2018-09-21T07:03:40.742Z,100979.69
2018-09-21T07:06:09.563Z,100984.12
2018-09-21T07:08:38.234Z,100975.23
2018-09-21T07:11:07.113Z,100996.19
2018-09-21T07:13:36.000Z,100995.48
2018-09-21T07:16:04.836Z,101017.16
2018-09-21T07:18:33.720Z,101016.50
2018-09-21T07:21:02.549Z,101023.09
2018-09-21T07:23:31.490Z,101018.72
2018-09-21T07:26:00.413Z,101021.40
2018-09-21T07:28:29.220Z,101033.55
2018-09-21T07:30:58.075Z,101042.44
2018-09-21T07:33:26.732Z,101034.00
2018-09-21T07:35:55.421Z,101047.27
2018-09-21T07:38:24.100Z,101044.50
2018-09-21T07:40:52.771Z,101061.42
2018-09-21T07:43:21.476Z,101056.50
2018-09-21T07:45:50.165Z,101069.32
2018-09-21T07:48:18.848Z,101077.77
2018-09-21T07:50:47.592Z,101079.12
2018-09-21T07:53:16.268Z,101091.13
2018-09-21T07:55:44.957Z,101084.59
2018-09-21T07:58:13.613Z,101081.97
2018-09-21T08:00:42.322Z,101079.52
2018-09-21T08:03:10.984Z,101078.20
2018-09-21T08:05:39.701Z,101093.34
2018-09-21T08:08:08.406Z,101095.80
2018-09-21T08:10:37.092Z,101101.63
2018-09-21T08:13:05.777Z,101099.31
2018-09-21T08:15:34.480Z,101111.87
2018-09-21T08:18:03.160Z,101110.47
2018-09-21T08:20:31.872Z,101103.23
2018-09-21T08:23:00.637Z,101114.22
2018-09-21T08:25:29.377Z,101098.83
2018-09-21T08:27:58.144Z,101121.81
2018-09-21T08:30:26.941Z,101134.12
2018-09-21T08:32:57.271Z,101114.48
2018-09-21T08:35:25.958Z,101135.98
2018-09-21T08:37:54.641Z,101140.08
2018-09-21T08:40:23.361Z,101151.46
2018-09-21T08:42:52.142Z,101125.53
2018-09-21T08:45:20.812Z,101139.66
2018-09-21T08:47:49.496Z,101146.08
2018-09-21T08:50:18.184Z,101158.42
2018-09-21T08:52:46.888Z,101149.84
2018-09-21T08:55:15.645Z,101155.37
2018-09-21T08:57:44.343Z,101171.20
2018-09-21T09:00:13.089Z,101140.77
2018-09-21T09:02:41.807Z,101173.53
2018-09-21T09:05:10.534Z,101190.52
2018-09-21T09:07:39.214Z,101193.17
2018-09-21T09:10:08.056Z,101167.62
2018-09-21T09:12:36.729Z,101172.77
2018-09-21T09:15:05.548Z,101179.33
2018-09-21T09:17:34.261Z,101177.83
2018-09-21T09:20:02.973Z,101170.88
2018-09-21T09:22:31.685Z,101192.23
2018-09-21T09:25:00.416Z,101186.54
2018-09-21T09:27:29.093Z,101178.05
2018-09-21T09:29:57.894Z,101189.91
2018-09-21T09:32:26.534Z,101198.48
2018-09-21T09:34:55.270Z,101198.88
2018-09-21T09:37:23.970Z,101188.28
2018-09-21T09:39:52.700Z,101186.69
2018-09-21T09:42:21.428Z,101202.81
2018-09-21T09:44:50.128Z,101200.88
2018-09-21T09:47:18.844Z,101223.55
2018-09-21T09:49:47.549Z,101229.77
2018-09-21T09:52:16.261Z,101225.09
2018-09-21T09:54:44.976Z,101222.92
2018-09-21T09:57:13.679Z,101246.76
2018-09-21T09:59:42.381Z,101253.70
2018-09-21T10:02:11.054Z,101267.78
2018-09-21T10:04:39.753Z,101240.81
2018-09-21T10:07:08.476Z,101260.50
2018-09-21T10:09:37.175Z,101280.11
2018-09-21T10:12:05.864Z,101291.81
2018-09-21T10:14:34.637Z,101259.12
2018-09-21T10:17:03.308Z,101283.83
2018-09-21T10:19:32.014Z,101276.11
2018-09-21T10:22:00.712Z,101274.73
2018-09-21T10:24:29.389Z,101282.67
2018-09-21T10:26:58.158Z,101281.72
2018-09-21T10:29:26.774Z,101279.48
2018-09-21T10:31:55.485Z,101297.39
2018-09-21T10:34:24.193Z,101291.02
2018-09-21T10:36:52.880Z,101289.12
2018-09-21T10:39:21.727Z,101298.81
2018-09-21T10:41:50.352Z,101308.96
2018-09-21T10:44:19.035Z,101386.28
2018-09-21T10:46:47.890Z,101307.47
2018-09-21T10:49:16.655Z,101309.42
2018-09-21T10:51:45.458Z,101321.34
2018-09-21T10:54:14.160Z,101314.81
2018-09-21T10:56:42.852Z,101323.80
2018-09-21T10:59:11.534Z,101320.98
2018-09-21T11:01:40.248Z,101328.30
2018-09-21T11:04:08.955Z,101321.77
2018-09-21T11:06:37.625Z,101321.58
2018-09-21T11:09:09.867Z,101322.77
2018-09-21T11:11:38.858Z,101322.48
2018-09-21T11:14:07.567Z,101341.41
2018-09-21T11:16:36.276Z,101320.27
2018-09-21T11:19:05.040Z,101323.72
2018-09-21T11:21:33.811Z,101334.61
2018-09-21T11:24:02.544Z,101320.88
2018-09-21T11:26:31.244Z,101355.65
2018-09-21T11:28:59.943Z,101351.75
2018-09-21T11:31:28.663Z,101342.77
2018-09-21T11:33:57.368Z,101358.25
2018-09-21T11:36:26.068Z,101349.83
2018-09-21T11:38:54.781Z,101404.20
2018-09-21T11:41:23.476Z,101354.48
2018-09-21T11:43:52.148Z,101371.36
2018-09-21T11:46:21.076Z,101390.89
2018-09-21T11:48:49.767Z,101406.71
2018-09-21T11:51:18.502Z,101395.22
2018-09-21T11:53:47.212Z,101402.34
2018-09-21T11:56:15.961Z,101389.30
2018-09-21T11:58:44.652Z,101380.57
2018-09-21T12:01:13.333Z,101387.59
2018-09-21T12:03:42.034Z,101408.14
2018-09-21T12:06:10.711Z,101413.19
2018-09-21T12:08:39.391Z,101398.02
2018-09-21T12:11:08.133Z,101444.80
2018-09-21T12:13:36.908Z,101431.94
2018-09-21T12:16:05.690Z,101419.61
2018-09-21T12:18:34.423Z,101418.09
2018-09-21T12:21:03.128Z,101413.97
2018-09-21T12:23:31.810Z,101456.44
2018-09-21T12:26:00.537Z,101447.69
2018-09-21T12:28:29.238Z,101459.30
2018-09-21T12:30:57.962Z,101461.00
2018-09-21T12:33:26.669Z,101456.59
2018-09-21T12:35:55.447Z,101464.45
2018-09-21T12:38:24.152Z,101467.30
2018-09-21T12:40:52.840Z,101469.19
2018-09-21T12:43:21.525Z,101489.86
2018-09-21T12:45:50.675Z,101485.51
2018-09-21T12:48:19.368Z,101492.22
2018-09-21T12:50:48.127Z,101480.81
2018-09-21T12:53:16.860Z,101480.45
2018-09-21T12:55:45.580Z,101502.88
2018-09-21T12:58:14.274Z,101511.05
2018-09-21T13:00:48.143Z,101494.77
2018-09-21T13:03:16.807Z,101483.79
2018-09-21T13:05:45.513Z,101527.47
2018-09-21T13:08:14.243Z,101503.47
2018-09-21T13:10:42.937Z,101513.67
2018-09-21T13:13:11.669Z,101513.20
2018-09-21T13:15:40.367Z,101525.04
2018-09-21T13:18:09.089Z,101523.38
2018-09-21T13:20:37.776Z,101512.80
2018-09-21T13:23:06.590Z,101545.63
2018-09-21T13:25:35.414Z,101536.27
2018-09-21T13:28:04.154Z,101550.14
2018-09-21T13:30:32.929Z,101543.14
2018-09-21T13:33:01.725Z,101548.59
2018-09-21T13:35:31.085Z,101549.25
2018-09-21T13:38:00.575Z,101545.38
2018-09-21T13:40:29.319Z,101548.41
2018-09-21T13:42:58.031Z,101559.01
2018-09-21T13:45:26.720Z,101567.01
2018-09-21T13:47:55.425Z,101568.20
2018-09-21T13:50:24.312Z,101589.95
2018-09-21T13:52:53.089Z,101586.15
2018-09-21T13:55:21.868Z,101586.02
2018-09-21T13:57:50.559Z,101578.40
2018-09-21T14:00:19.238Z,101584.70
2018-09-21T14:02:47.899Z,101585.95
2018-09-21T14:05:16.597Z,101578.45
2018-09-21T14:07:45.268Z,101590.56
2018-09-21T14:10:13.935Z,101597.58
2018-09-21T14:12:42.657Z,101600.92
2018-09-21T14:15:11.340Z,101594.09
2018-09-21T14:17:40.006Z,101598.06
2018-09-21T14:20:08.733Z,101602.16
2018-09-21T14:22:37.399Z,101609.06
2018-09-21T14:25:06.112Z,101609.91
2018-09-21T14:27:34.773Z,101626.00
2018-09-21T14:30:03.528Z,101630.48
2018-09-21T14:32:32.198Z,101606.92
2018-09-21T14:35:01.047Z,101630.83
2018-09-21T14:37:29.782Z,101620.88
2018-09-21T14:39:58.499Z,101624.75
2018-09-21T14:42:27.239Z,101628.03
2018-09-21T14:44:55.938Z,101627.81
2018-09-21T14:47:24.663Z,101619.38
2018-09-21T14:49:53.490Z,101635.03
2018-09-21T14:52:22.207Z,101631.48
2018-09-21T14:54:50.904Z,101630.52
2018-09-21T14:57:19.701Z,101644.26
2018-09-21T14:59:48.443Z,101643.50
2018-09-21T15:02:17.355Z,101640.39
2018-09-21T15:04:46.175Z,101647.15
2018-09-21T15:07:15.065Z,101649.19
2018-09-21T15:09:43.814Z,101659.82
2018-09-21T15:12:12.583Z,101654.16
2018-09-21T15:14:41.346Z,101658.58
2018-09-21T15:17:10.153Z,101675.48
2018-09-21T15:19:38.842Z,101669.56
2018-09-21T15:22:08.220Z,101667.00
2018-09-21T15:24:37.053Z,101682.61
2018-09-21T15:27:05.880Z,101689.96
2018-09-21T15:29:34.717Z,101703.52
2018-09-21T15:32:03.428Z,101698.05
2018-09-21T15:34:32.132Z,101705.41
2018-09-21T15:37:00.836Z,101711.69
2018-09-21T15:39:29.731Z,101704.27
2018-09-21T15:41:58.397Z,101712.92
2018-09-21T15:44:27.065Z,101721.44
2018-09-21T15:46:55.768Z,101712.90
2018-09-21T15:49:25.636Z,101719.70
2018-09-21T15:51:54.406Z,101718.27
2018-09-21T15:54:23.099Z,101709.77
2018-09-21T15:56:51.807Z,101707.19
2018-09-21T15:59:20.515Z,101717.31
2018-09-21T16:01:49.219Z,101719.80
2018-09-21T16:04:18.018Z,101714.22
2018-09-21T16:06:46.738Z,101721.20
2018-09-21T16:09:15.541Z,101718.31
2018-09-21T16:11:44.324Z,101723.59
2018-09-21T16:14:13.021Z,101724.64
2018-09-21T16:16:42.884Z,101728.44
2018-09-21T16:19:11.606Z,101730.61
2018-09-21T16:21:40.276Z,101733.92
2018-09-21T16:24:09.028Z,101739.44
2018-09-21T16:26:37.729Z,101735.80
2018-09-21T16:29:06.439Z,101731.55
2018-09-21T16:31:35.155Z,101736.44
2018-09-21T16:34:03.841Z,101747.70
2018-09-21T16:36:32.565Z,101746.61
2018-09-21T16:39:01.364Z,101756.77
2018-09-21T16:41:30.136Z,101771.66
2018-09-21T16:43:59.068Z,101744.90
2018-09-21T16:46:27.777Z,101766.37
2018-09-21T16:48:56.526Z,101749.79
2018-09-21T16:51:25.446Z,101763.17
2018-09-21T16:53:54.200Z,101756.20
2018-09-21T16:56:23.040Z,101770.13
2018-09-21T16:58:51.892Z,101776.13
2018-09-21T17:01:20.670Z,101765.37
2018-09-21T17:03:49.392Z,101767.12
2018-09-21T17:06:18.167Z,101772.66
2018-09-21T17:08:46.877Z,101768.93
2018-09-21T17:11:15.674Z,101768.70
2018-09-21T17:13:44.318Z,101770.56
2018-09-21T17:16:13.177Z,101770.59
2018-09-21T17:18:42.000Z,101772.95
2018-09-21T17:21:10.880Z,101771.00
2018-09-21T17:23:39.665Z,101780.46
2018-09-21T17:26:08.524Z,101774.94
2018-09-21T17:28:37.393Z,101779.47
2018-09-21T17:31:06.300Z,101781.27
2018-09-21T17:33:35.068Z,101782.15
2018-09-21T17:36:03.864Z,101786.69
2018-09-21T17:38:32.706Z,101790.59
2018-09-21T17:41:01.585Z,101778.94
2018-09-21T17:43:30.353Z,101783.44
2018-09-21T17:45:59.130Z,101779.44
2018-09-21T17:48:27.857Z,101778.98
2018-09-21T17:50:56.659Z,101790.23
2018-09-21T17:53:25.497Z,101801.98
2018-09-21T17:55:54.211Z,101805.81
2018-09-21T17:58:22.982Z,101800.25
2018-09-21T18:00:51.991Z,101790.00
2018-09-21T18:03:20.751Z,101803.05
2018-09-21T18:05:49.673Z,101800.86
2018-09-21T18:08:18.429Z,101815.73
2018-09-21T18:10:47.218Z,101820.81
2018-09-21T18:13:16.177Z,101827.15
2018-09-21T18:15:45.005Z,101835.48
2018-09-21T18:18:13.689Z,101830.42
2018-09-21T18:20:42.360Z,101837.12
2018-09-21T18:23:11.067Z,101831.25
2018-09-21T18:25:39.841Z,101832.38
2018-09-21T18:28:08.484Z,101846.53
2018-09-21T18:30:37.187Z,101850.42
2018-09-21T18:33:05.912Z,101845.68
2018-09-21T18:35:34.599Z,101841.38
2018-09-21T18:38:03.489Z,101852.45
2018-09-21T18:40:33.134Z,101856.08
2018-09-21T18:43:01.996Z,101849.20
2018-09-21T18:45:30.705Z,101855.30
2018-09-21T18:47:59.388Z,101856.75
2018-09-21T18:50:29.189Z,101861.67
2018-09-21T18:52:57.788Z,101865.28
2018-09-21T18:55:26.467Z,101874.59
2018-09-21T18:57:55.169Z,101865.79
2018-09-21T19:00:23.872Z,101866.11
2018-09-21T19:02:52.751Z,101876.59
2018-09-21T19:05:21.541Z,101864.03
2018-09-21T19:07:50.403Z,101873.52
2018-09-21T19:10:19.085Z,101868.68
2018-09-21T19:12:47.888Z,101861.72
2018-09-21T19:15:16.672Z,101850.69
2018-09-21T19:17:45.386Z,101869.13
2018-09-21T19:20:14.240Z,101883.55
2018-09-21T19:22:42.955Z,101872.61
2018-09-21T19:25:11.742Z,101879.48
2018-09-21T19:27:40.469Z,101884.72
2018-09-21T19:30:09.341Z,101894.34
2018-09-21T19:32:38.027Z,101904.78
2018-09-21T19:35:06.871Z,101891.59
2018-09-21T19:37:35.901Z,101882.55
2018-09-21T19:40:04.885Z,101894.34
2018-09-21T19:42:34.797Z,101898.69
2018-09-21T19:45:03.848Z,101905.61
2018-09-21T19:47:32.489Z,101912.56
2018-09-21T19:50:01.265Z,101912.70
2018-09-21T19:52:29.931Z,101905.61
2018-09-21T19:54:58.780Z,101895.13
2018-09-21T19:57:27.496Z,101912.16
2018-09-21T19:59:56.336Z,101920.51
2018-09-21T20:02:25.150Z,101931.05
2018-09-21T20:04:53.961Z,101924.94
2018-09-21T20:07:22.667Z,101912.70
2018-09-21T20:09:51.353Z,101908.36
2018-09-21T20:12:20.097Z,101906.68
2018-09-21T20:14:48.893Z,101912.30
2018-09-21T20:17:17.905Z,101912.83
2018-09-21T20:19:46.672Z,101921.87
2018-09-21T20:22:15.459Z,101940.62
2018-09-21T20:24:44.317Z,101940.16
2018-09-21T20:27:13.243Z,101945.54
2018-09-21T20:29:42.011Z,101950.24
2018-09-21T20:32:15.904Z,101933.66
2018-09-21T20:34:44.658Z,101946.72
2018-09-21T20:37:13.468Z,101955.03
2018-09-21T20:39:42.337Z,101956.34
2018-09-21T20:42:11.084Z,101958.11
2018-09-21T20:44:39.811Z,101945.45
2018-09-21T20:47:08.707Z,101960.86
2018-09-21T20:49:37.622Z,101956.48
2018-09-21T20:52:06.392Z,101959.55
2018-09-21T20:54:35.346Z,101954.31
2018-09-21T20:57:04.128Z,101948.16
2018-09-21T20:59:32.881Z,101954.71
2018-09-21T21:02:01.615Z,101952.92
2018-09-21T21:04:30.331Z,101952.55
2018-09-21T21:06:59.048Z,101956.48
2018-09-21T21:09:27.731Z,101953.86
2018-09-21T21:11:57.090Z,101972.20
2018-09-21T21:14:25.813Z,101952.92
2018-09-21T21:16:54.500Z,101959.88
2018-09-21T21:19:23.235Z,101957.25
2018-09-21T21:21:52.004Z,101960.73
2018-09-21T21:24:20.705Z,101963.80
2018-09-21T21:26:49.468Z,101969.50
2018-09-21T21:29:18.183Z,101976.00
2018-09-21T21:31:46.948Z,101974.23
2018-09-21T21:34:15.639Z,101989.80
2018-09-21T21:36:44.351Z,101982.80
2018-09-21T21:39:13.089Z,101985.05
2018-09-21T21:41:41.786Z,101985.42
2018-09-21T21:44:10.490Z,101984.56
2018-09-21T21:46:39.178Z,101988.58
2018-09-21T21:49:07.878Z,101990.02
2018-09-21T21:51:36.593Z,102002.53
2018-09-21T21:54:05.305Z,101992.10
2018-09-21T21:56:34.076Z,101977.23
2018-09-21T21:59:02.741Z,101991.33
2018-09-21T22:01:36.423Z,101994.80
2018-09-21T22:04:05.140Z,101992.63
2018-09-21T22:06:33.820Z,102004.43
2018-09-21T22:09:02.499Z,102014.91
2018-09-21T22:11:36.236Z,102016.63
2018-09-21T22:14:09.200Z,102015.31
2018-09-21T22:16:37.910Z,102011.38
2018-09-21T22:19:07.183Z,102017.13
2018-09-21T22:21:35.925Z,102019.25
2018-09-21T22:24:04.678Z,102017.48
2018-09-21T22:26:33.619Z,102027.48
2018-09-21T22:29:02.324Z,102021.47
2018-09-21T22:31:31.316Z,102023.31
2018-09-21T22:34:00.060Z,102027.37
2018-09-21T22:36:28.749Z,102034.00
2018-09-21T22:38:57.443Z,102030.52
2018-09-21T22:41:26.171Z,102025.28
2018-09-21T22:43:54.878Z,102019.95
2018-09-21T22:46:23.562Z,102023.03
2018-09-21T22:48:53.047Z,102030.89
2018-09-21T22:51:21.720Z,102025.65
2018-09-21T22:53:50.412Z,102020.89
2018-09-21T22:56:19.091Z,102013.86
2018-09-21T22:58:47.782Z,102014.47
2018-09-21T23:01:16.483Z,102008.38
2018-09-21T23:03:45.153Z,102011.04
2018-09-21T23:06:13.854Z,102004.57
2018-09-21T23:08:42.540Z,102015.05
2018-09-21T23:11:11.229Z,102025.53
2018-09-21T23:13:39.896Z,102030.37
2018-09-21T23:16:08.596Z,102027.75
2018-09-21T23:18:37.334Z,102011.66
2018-09-21T23:21:06.035Z,102018.12
2018-09-21T23:23:34.785Z,102023.81
2018-09-21T23:26:03.472Z,102023.45
2018-09-21T23:28:32.162Z,102015.17
2018-09-21T23:31:00.867Z,102018.33
2018-09-21T23:33:29.570Z,102027.50
2018-09-21T23:35:58.292Z,102028.41
2018-09-21T23:38:26.973Z,102036.27
2018-09-21T23:40:55.660Z,102037.13
2018-09-21T23:43:24.352Z,102035.81
2018-09-21T23:45:53.047Z,102031.48
2018-09-21T23:48:21.733Z,102039.74
2018-09-21T23:50:50.421Z,102017.06
2018-09-21T23:53:19.075Z,102019.64
2018-09-21T23:55:47.758Z,102039.66
2018-09-21T23:58:16.423Z,102041.91
